sensor_id;sensor_type;location;lat;lon;timestamp;P1;P2;P0
23240;PMS7003;11789;53.482;9.862;2023-05-10T00:02:07;11.00;8.25;6.50
23240;PMS7003;11789;53.482;9.862;2023-05-10T00:04:32;9.00;7.50;6.25
23240;PMS7003;11789;53.482;9.862;2023-05-10T00:06:58;10.00;10.00;8.25
23240;PMS7003;11789;53.482;9.862;2023-05-10T00:09:24;8.50;8.50;7.50
23240;PMS7003;11789;53.482;9.862;2023-05-10T00:11:49;9.50;9.50;8.00
23240;PMS7003;11789;53.482;9.862;2023-05-10T00:14:15;10.25;10.00;8.00
23240;PMS7003;11789;53.482;9.862;2023-05-10T00:16:40;11.00;9.50;8.00
23240;PMS7003;11789;53.482;9.862;2023-05-10T00:19:06;9.25;9.25;8.00
23240;PMS7003;11789;53.482;9.862;2023-05-10T00:21:32;9.00;9.00;8.00
23240;PMS7003;11789;53.482;9.862;2023-05-10T00:23:58;12.75;8.50;7.00
23240;PMS7003;11789;53.482;9.862;2023-05-10T00:26:24;6.25;6.25;5.00
23240;PMS7003;11789;53.482;9.862;2023-05-10T00:28:50;12.50;10.50;8.50
23240;PMS7003;11789;53.482;9.862;2023-05-10T00:31:15;9.50;9.50;8.00
23240;PMS7003;11789;53.482;9.862;2023-05-10T00:33:40;8.75;8.50;6.75
23240;PMS7003;11789;53.482;9.862;2023-05-10T00:36:06;9.25;8.75;6.75
23240;PMS7003;11789;53.482;9.862;2023-05-10T00:38:32;9.25;9.25;7.25
23240;PMS7003;11789;53.482;9.862;2023-05-10T00:40:58;12.75;10.75;8.25
23240;PMS7003;11789;53.482;9.862;2023-05-10T00:43:24;9.00;9.00;7.50
23240;PMS7003;11789;53.482;9.862;2023-05-10T00:45:49;10.00;10.00;9.00
23240;PMS7003;11789;53.482;9.862;2023-05-10T00:48:15;8.00;8.00;6.25
23240;PMS7003;11789;53.482;9.862;2023-05-10T00:50:40;12.25;10.00;9.00
23240;PMS7003;11789;53.482;9.862;2023-05-10T00:53:06;9.25;9.25;7.00
23240;PMS7003;11789;53.482;9.862;2023-05-10T00:55:32;9.50;9.50;8.00
23240;PMS7003;11789;53.482;9.862;2023-05-10T00:57:58;10.50;10.00;8.00
23240;PMS7003;11789;53.482;9.862;2023-05-10T01:00:23;10.75;10.75;9.00
23240;PMS7003;11789;53.482;9.862;2023-05-10T01:02:49;10.25;10.25;8.50
23240;PMS7003;11789;53.482;9.862;2023-05-10T01:05:15;13.25;11.00;9.00
23240;PMS7003;11789;53.482;9.862;2023-05-10T01:07:40;11.00;11.00;9.00
23240;PMS7003;11789;53.482;9.862;2023-05-10T01:10:06;11.00;9.25;7.50
23240;PMS7003;11789;53.482;9.862;2023-05-10T01:12:34;12.25;12.25;9.75
23240;PMS7003;11789;53.482;9.862;2023-05-10T01:15:02;9.00;9.00;8.00
23240;PMS7003;11789;53.482;9.862;2023-05-10T01:17:28;11.75;9.25;7.00
23240;PMS7003;11789;53.482;9.862;2023-05-10T01:19:55;11.00;11.00;9.00
23240;PMS7003;11789;53.482;9.862;2023-05-10T01:28:07;12.00;10.75;9.00
23240;PMS7003;11789;53.482;9.862;2023-05-10T01:31:03;13.00;12.00;8.75
23240;PMS7003;11789;53.482;9.862;2023-05-10T01:33:52;10.75;9.75;8.00
23240;PMS7003;11789;53.482;9.862;2023-05-10T01:39:02;11.50;9.75;7.75
23240;PMS7003;11789;53.482;9.862;2023-05-10T01:44:16;11.50;11.50;9.50
23240;PMS7003;11789;53.482;9.862;2023-05-10T01:46:53;12.00;12.00;8.75
23240;PMS7003;11789;53.482;9.862;2023-05-10T01:49:27;10.50;10.50;8.75
23240;PMS7003;11789;53.482;9.862;2023-05-10T01:51:59;12.00;10.00;8.00
23240;PMS7003;11789;53.482;9.862;2023-05-10T01:54:28;9.75;9.75;7.50
23240;PMS7003;11789;53.482;9.862;2023-05-10T01:56:59;12.00;12.00;9.75
23240;PMS7003;11789;53.482;9.862;2023-05-10T01:59:29;14.25;12.50;9.00
23240;PMS7003;11789;53.482;9.862;2023-05-10T02:02:01;15.75;13.25;10.50
23240;PMS7003;11789;53.482;9.862;2023-05-10T02:04:29;15.00;12.50;8.50
23240;PMS7003;11789;53.482;9.862;2023-05-10T02:06:56;12.50;12.50;9.75
23240;PMS7003;11789;53.482;9.862;2023-05-10T02:09:22;13.50;13.50;9.75
23240;PMS7003;11789;53.482;9.862;2023-05-10T02:11:50;13.75;11.25;9.75
23240;PMS7003;11789;53.482;9.862;2023-05-10T02:14:17;14.75;13.25;9.50
23240;PMS7003;11789;53.482;9.862;2023-05-10T02:16:44;14.00;14.00;11.25
23240;PMS7003;11789;53.482;9.862;2023-05-10T02:19:11;14.00;14.00;11.25
23240;PMS7003;11789;53.482;9.862;2023-05-10T02:21:39;16.00;16.00;12.25
23240;PMS7003;11789;53.482;9.862;2023-05-10T02:24:05;16.25;15.25;10.75
23240;PMS7003;11789;53.482;9.862;2023-05-10T02:26:33;14.25;14.25;10.75
23240;PMS7003;11789;53.482;9.862;2023-05-10T02:29:01;14.75;14.75;10.25
23240;PMS7003;11789;53.482;9.862;2023-05-10T02:31:29;13.25;12.75;10.25
23240;PMS7003;11789;53.482;9.862;2023-05-10T02:33:57;13.75;13.00;10.25
23240;PMS7003;11789;53.482;9.862;2023-05-10T02:36:23;10.50;10.25;8.50
23240;PMS7003;11789;53.482;9.862;2023-05-10T02:38:52;15.00;13.25;10.00
23240;PMS7003;11789;53.482;9.862;2023-05-10T02:41:19;14.25;14.25;10.25
23240;PMS7003;11789;53.482;9.862;2023-05-10T02:43:48;12.50;12.50;10.00
23240;PMS7003;11789;53.482;9.862;2023-05-10T02:46:16;13.25;13.25;11.00
23240;PMS7003;11789;53.482;9.862;2023-05-10T02:48:41;14.25;13.25;10.50
23240;PMS7003;11789;53.482;9.862;2023-05-10T02:51:07;15.00;13.50;11.25
23240;PMS7003;11789;53.482;9.862;2023-05-10T02:53:34;13.75;13.25;10.50
23240;PMS7003;11789;53.482;9.862;2023-05-10T02:56:10;13.00;11.50;7.75
23240;PMS7003;11789;53.482;9.862;2023-05-10T02:58:40;14.50;14.00;11.25
23240;PMS7003;11789;53.482;9.862;2023-05-10T03:01:05;13.00;13.00;10.00
23240;PMS7003;11789;53.482;9.862;2023-05-10T03:03:32;16.00;15.00;12.00
23240;PMS7003;11789;53.482;9.862;2023-05-10T03:05:58;11.50;11.50;8.75
23240;PMS7003;11789;53.482;9.862;2023-05-10T03:08:24;16.00;14.50;11.25
23240;PMS7003;11789;53.482;9.862;2023-05-10T03:11:01;12.00;12.00;10.00
23240;PMS7003;11789;53.482;9.862;2023-05-10T03:13:36;16.00;13.50;11.50
23240;PMS7003;11789;53.482;9.862;2023-05-10T03:16:14;14.00;14.00;10.50
23240;PMS7003;11789;53.482;9.862;2023-05-10T03:21:24;14.75;14.75;11.25
23240;PMS7003;11789;53.482;9.862;2023-05-10T03:24:16;12.00;12.00;10.75
23240;PMS7003;11789;53.482;9.862;2023-05-10T03:26:42;15.00;15.00;12.50
23240;PMS7003;11789;53.482;9.862;2023-05-10T03:29:10;17.50;14.25;11.25
23240;PMS7003;11789;53.482;9.862;2023-05-10T03:31:38;16.50;15.00;11.25
23240;PMS7003;11789;53.482;9.862;2023-05-10T03:34:04;16.25;14.25;11.00
23240;PMS7003;11789;53.482;9.862;2023-05-10T03:36:29;17.00;14.75;11.50
23240;PMS7003;11789;53.482;9.862;2023-05-10T03:38:55;12.75;12.75;10.25
23240;PMS7003;11789;53.482;9.862;2023-05-10T03:41:20;16.25;14.00;10.50
23240;PMS7003;11789;53.482;9.862;2023-05-10T03:43:46;15.75;15.00;12.00
23240;PMS7003;11789;53.482;9.862;2023-05-10T03:46:11;16.50;16.00;12.50
23240;PMS7003;11789;53.482;9.862;2023-05-10T03:48:37;14.75;14.50;11.25
23240;PMS7003;11789;53.482;9.862;2023-05-10T03:51:02;15.25;15.25;13.00
23240;PMS7003;11789;53.482;9.862;2023-05-10T03:53:28;17.75;15.25;12.25
23240;PMS7003;11789;53.482;9.862;2023-05-10T03:55:53;16.25;15.50;11.00
23240;PMS7003;11789;53.482;9.862;2023-05-10T03:58:19;16.50;16.00;12.00
23240;PMS7003;11789;53.482;9.862;2023-05-10T04:00:44;17.75;16.00;12.00
23240;PMS7003;11789;53.482;9.862;2023-05-10T04:03:13;16.25;15.75;13.00
23240;PMS7003;11789;53.482;9.862;2023-05-10T04:05:39;16.00;15.25;12.00
23240;PMS7003;11789;53.482;9.862;2023-05-10T04:08:05;13.25;13.25;10.50
23240;PMS7003;11789;53.482;9.862;2023-05-10T04:10:31;18.75;17.25;13.00
23240;PMS7003;11789;53.482;9.862;2023-05-10T04:12:57;17.00;16.00;11.25
23240;PMS7003;11789;53.482;9.862;2023-05-10T04:15:22;15.00;13.00;11.50
23240;PMS7003;11789;53.482;9.862;2023-05-10T04:17:48;15.25;15.25;11.75
23240;PMS7003;11789;53.482;9.862;2023-05-10T04:20:13;19.00;16.00;13.00
23240;PMS7003;11789;53.482;9.862;2023-05-10T04:22:39;16.75;16.00;13.00
23240;PMS7003;11789;53.482;9.862;2023-05-10T04:25:05;21.00;17.75;13.75
23240;PMS7003;11789;53.482;9.862;2023-05-10T04:27:32;17.50;17.50;12.50
23240;PMS7003;11789;53.482;9.862;2023-05-10T04:29:57;15.50;15.50;12.25
23240;PMS7003;11789;53.482;9.862;2023-05-10T04:32:23;17.00;17.00;14.50
23240;PMS7003;11789;53.482;9.862;2023-05-10T04:34:48;17.25;17.25;13.00
23240;PMS7003;11789;53.482;9.862;2023-05-10T04:37:14;16.75;16.75;12.50
23240;PMS7003;11789;53.482;9.862;2023-05-10T04:39:39;16.50;16.50;13.75
23240;PMS7003;11789;53.482;9.862;2023-05-10T04:42:05;17.25;17.25;13.75
23240;PMS7003;11789;53.482;9.862;2023-05-10T04:44:31;18.50;17.25;13.00
23240;PMS7003;11789;53.482;9.862;2023-05-10T04:46:57;18.25;18.25;14.00
23240;PMS7003;11789;53.482;9.862;2023-05-10T04:49:22;15.50;15.25;13.00
23240;PMS7003;11789;53.482;9.862;2023-05-10T04:51:48;15.25;14.50;11.75
23240;PMS7003;11789;53.482;9.862;2023-05-10T04:54:13;14.00;14.00;11.75
23240;PMS7003;11789;53.482;9.862;2023-05-10T04:56:38;14.00;14.00;11.75
23240;PMS7003;11789;53.482;9.862;2023-05-10T04:59:04;17.75;15.50;12.25
23240;PMS7003;11789;53.482;9.862;2023-05-10T05:01:29;16.00;14.50;11.00
23240;PMS7003;11789;53.482;9.862;2023-05-10T05:03:55;12.75;12.75;10.00
23240;PMS7003;11789;53.482;9.862;2023-05-10T05:06:21;15.50;14.00;11.50
23240;PMS7003;11789;53.482;9.862;2023-05-10T05:08:46;14.00;13.00;12.00
23240;PMS7003;11789;53.482;9.862;2023-05-10T05:11:12;13.00;13.00;10.25
23240;PMS7003;11789;53.482;9.862;2023-05-10T05:13:37;14.00;14.00;12.00
23240;PMS7003;11789;53.482;9.862;2023-05-10T05:16:03;13.50;13.50;10.50
23240;PMS7003;11789;53.482;9.862;2023-05-10T05:18:30;14.50;14.50;11.25
23240;PMS7003;11789;53.482;9.862;2023-05-10T05:20:55;13.00;12.50;10.25
23240;PMS7003;11789;53.482;9.862;2023-05-10T05:23:21;14.75;13.25;11.00
23240;PMS7003;11789;53.482;9.862;2023-05-10T05:25:50;14.75;14.75;11.25
23240;PMS7003;11789;53.482;9.862;2023-05-10T05:28:17;15.25;14.00;10.00
23240;PMS7003;11789;53.482;9.862;2023-05-10T05:30:43;14.50;14.50;12.50
23240;PMS7003;11789;53.482;9.862;2023-05-10T05:33:08;14.50;12.50;9.50
23240;PMS7003;11789;53.482;9.862;2023-05-10T05:35:34;14.75;12.75;11.00
23240;PMS7003;11789;53.482;9.862;2023-05-10T05:37:59;12.75;12.75;9.75
23240;PMS7003;11789;53.482;9.862;2023-05-10T05:40:24;13.25;13.25;10.75
23240;PMS7003;11789;53.482;9.862;2023-05-10T05:42:50;11.25;10.75;9.00
23240;PMS7003;11789;53.482;9.862;2023-05-10T05:45:15;13.00;13.00;10.50
23240;PMS7003;11789;53.482;9.862;2023-05-10T05:47:41;15.00;15.00;11.00
23240;PMS7003;11789;53.482;9.862;2023-05-10T05:50:07;17.50;14.75;11.50
23240;PMS7003;11789;53.482;9.862;2023-05-10T05:52:32;15.75;14.75;11.25
23240;PMS7003;11789;53.482;9.862;2023-05-10T05:54:58;13.25;13.25;11.25
23240;PMS7003;11789;53.482;9.862;2023-05-10T05:57:23;14.25;12.50;10.00
23240;PMS7003;11789;53.482;9.862;2023-05-10T05:59:49;13.75;11.50;11.00
23240;PMS7003;11789;53.482;9.862;2023-05-10T06:02:14;16.50;16.50;12.25
23240;PMS7003;11789;53.482;9.862;2023-05-10T06:04:39;15.00;12.25;9.75
23240;PMS7003;11789;53.482;9.862;2023-05-10T06:07:05;15.75;15.75;10.25
23240;PMS7003;11789;53.482;9.862;2023-05-10T06:09:30;14.25;13.25;9.75
23240;PMS7003;11789;53.482;9.862;2023-05-10T06:11:56;14.25;12.50;10.00
23240;PMS7003;11789;53.482;9.862;2023-05-10T06:14:22;16.00;14.50;11.00
23240;PMS7003;11789;53.482;9.862;2023-05-10T06:16:47;12.00;12.00;9.50
23240;PMS7003;11789;53.482;9.862;2023-05-10T06:19:13;17.50;14.00;10.00
23240;PMS7003;11789;53.482;9.862;2023-05-10T06:21:38;14.25;12.50;10.25
23240;PMS7003;11789;53.482;9.862;2023-05-10T06:24:04;17.75;15.00;10.00
23240;PMS7003;11789;53.482;9.862;2023-05-10T06:26:31;12.50;12.50;10.25
23240;PMS7003;11789;53.482;9.862;2023-05-10T06:28:57;15.25;15.25;11.50
23240;PMS7003;11789;53.482;9.862;2023-05-10T06:31:22;16.75;14.50;10.25
23240;PMS7003;11789;53.482;9.862;2023-05-10T06:33:48;15.50;15.50;10.00
23240;PMS7003;11789;53.482;9.862;2023-05-10T06:36:13;13.75;13.75;10.50
23240;PMS7003;11789;53.482;9.862;2023-05-10T06:38:39;14.75;13.25;10.00
23240;PMS7003;11789;53.482;9.862;2023-05-10T06:41:05;13.25;13.25;11.50
23240;PMS7003;11789;53.482;9.862;2023-05-10T06:43:30;15.25;15.25;11.25
23240;PMS7003;11789;53.482;9.862;2023-05-10T06:45:56;14.00;12.50;9.25
23240;PMS7003;11789;53.482;9.862;2023-05-10T06:48:22;15.50;15.50;11.00
23240;PMS7003;11789;53.482;9.862;2023-05-10T06:50:48;13.00;11.00;9.50
23240;PMS7003;11789;53.482;9.862;2023-05-10T06:53:13;14.00;11.50;9.50
23240;PMS7003;11789;53.482;9.862;2023-05-10T06:55:39;11.25;11.25;9.25
23240;PMS7003;11789;53.482;9.862;2023-05-10T06:58:04;11.75;11.75;9.00
23240;PMS7003;11789;53.482;9.862;2023-05-10T07:00:30;15.25;15.25;12.00
23240;PMS7003;11789;53.482;9.862;2023-05-10T07:02:55;13.75;11.75;10.00
23240;PMS7003;11789;53.482;9.862;2023-05-10T07:05:21;10.25;10.25;9.25
23240;PMS7003;11789;53.482;9.862;2023-05-10T07:07:46;14.50;12.75;9.75
23240;PMS7003;11789;53.482;9.862;2023-05-10T07:10:12;13.50;11.25;8.75
23240;PMS7003;11789;53.482;9.862;2023-05-10T07:12:38;14.25;11.50;9.25
23240;PMS7003;11789;53.482;9.862;2023-05-10T07:15:04;14.00;12.75;9.25
23240;PMS7003;11789;53.482;9.862;2023-05-10T07:17:30;13.50;11.75;9.25
23240;PMS7003;11789;53.482;9.862;2023-05-10T07:19:55;11.50;11.50;8.75
23240;PMS7003;11789;53.482;9.862;2023-05-10T07:22:21;13.00;11.00;9.00
23240;PMS7003;11789;53.482;9.862;2023-05-10T07:24:46;12.50;11.50;9.25
23240;PMS7003;11789;53.482;9.862;2023-05-10T07:27:12;14.50;13.25;10.00
23240;PMS7003;11789;53.482;9.862;2023-05-10T07:29:38;15.00;13.50;10.00
23240;PMS7003;11789;53.482;9.862;2023-05-10T07:32:03;12.25;12.25;9.25
23240;PMS7003;11789;53.482;9.862;2023-05-10T07:34:29;13.75;13.75;10.25
23240;PMS7003;11789;53.482;9.862;2023-05-10T07:36:59;11.50;11.25;9.25
23240;PMS7003;11789;53.482;9.862;2023-05-10T07:39:26;13.75;13.50;10.25
23240;PMS7003;11789;53.482;9.862;2023-05-10T07:41:52;12.25;12.25;9.50
23240;PMS7003;11789;53.482;9.862;2023-05-10T07:44:17;14.50;14.50;11.00
23240;PMS7003;11789;53.482;9.862;2023-05-10T07:46:46;15.25;14.50;10.00
23240;PMS7003;11789;53.482;9.862;2023-05-10T07:49:12;10.75;10.75;9.50
23240;PMS7003;11789;53.482;9.862;2023-05-10T07:51:38;13.75;13.75;11.25
23240;PMS7003;11789;53.482;9.862;2023-05-10T07:54:03;17.00;12.75;10.50
23240;PMS7003;11789;53.482;9.862;2023-05-10T07:56:29;16.50;12.50;9.25
23240;PMS7003;11789;53.482;9.862;2023-05-10T07:58:56;11.50;11.50;9.25
23240;PMS7003;11789;53.482;9.862;2023-05-10T08:01:26;14.75;12.25;10.00
23240;PMS7003;11789;53.482;9.862;2023-05-10T08:03:54;14.75;14.75;10.50
23240;PMS7003;11789;53.482;9.862;2023-05-10T08:06:20;14.75;12.50;9.75
23240;PMS7003;11789;53.482;9.862;2023-05-10T08:08:46;15.75;13.50;10.25
23240;PMS7003;11789;53.482;9.862;2023-05-10T08:11:15;17.00;16.00;11.50
23240;PMS7003;11789;53.482;9.862;2023-05-10T08:13:44;15.00;12.00;9.50
23240;PMS7003;11789;53.482;9.862;2023-05-10T08:16:10;14.75;14.00;10.75
23240;PMS7003;11789;53.482;9.862;2023-05-10T08:18:35;15.50;15.00;11.25
23240;PMS7003;11789;53.482;9.862;2023-05-10T08:21:02;14.50;12.75;9.25
23240;PMS7003;11789;53.482;9.862;2023-05-10T08:23:27;16.25;15.00;11.00
23240;PMS7003;11789;53.482;9.862;2023-05-10T08:25:53;14.25;14.25;9.50
23240;PMS7003;11789;53.482;9.862;2023-05-10T08:28:18;14.25;14.25;10.00
23240;PMS7003;11789;53.482;9.862;2023-05-10T08:30:43;14.00;13.00;9.00
23240;PMS7003;11789;53.482;9.862;2023-05-10T08:33:09;11.75;11.75;9.75
23240;PMS7003;11789;53.482;9.862;2023-05-10T08:35:34;13.25;13.25;11.50
23240;PMS7003;11789;53.482;9.862;2023-05-10T08:38:00;15.25;14.75;10.75
23240;PMS7003;11789;53.482;9.862;2023-05-10T08:40:26;16.75;15.00;11.25
23240;PMS7003;11789;53.482;9.862;2023-05-10T08:45:59;14.75;14.75;11.25
23240;PMS7003;11789;53.482;9.862;2023-05-10T08:48:29;16.00;14.25;10.25
23240;PMS7003;11789;53.482;9.862;2023-05-10T08:50:55;13.50;13.50;9.75
23240;PMS7003;11789;53.482;9.862;2023-05-10T08:53:24;17.75;14.75;11.00
23240;PMS7003;11789;53.482;9.862;2023-05-10T08:55:53;14.50;14.50;10.75
23240;PMS7003;11789;53.482;9.862;2023-05-10T08:58:19;14.25;14.25;11.00
23240;PMS7003;11789;53.482;9.862;2023-05-10T09:00:45;15.25;14.50;10.75
23240;PMS7003;11789;53.482;9.862;2023-05-10T09:03:10;17.25;14.75;10.50
23240;PMS7003;11789;53.482;9.862;2023-05-10T09:05:36;16.50;15.25;12.50
23240;PMS7003;11789;53.482;9.862;2023-05-10T09:08:02;17.50;14.50;10.25
23240;PMS7003;11789;53.482;9.862;2023-05-10T09:10:28;18.50;15.25;11.50
23240;PMS7003;11789;53.482;9.862;2023-05-10T09:12:56;14.50;14.50;10.00
23240;PMS7003;11789;53.482;9.862;2023-05-10T09:15:22;16.00;16.00;11.00
23240;PMS7003;11789;53.482;9.862;2023-05-10T09:17:48;16.50;15.25;11.50
23240;PMS7003;11789;53.482;9.862;2023-05-10T09:20:14;19.00;19.00;13.00
23240;PMS7003;11789;53.482;9.862;2023-05-10T09:22:42;15.25;15.25;11.00
23240;PMS7003;11789;53.482;9.862;2023-05-10T09:28:19;18.25;16.00;11.75
23240;PMS7003;11789;53.482;9.862;2023-05-10T09:30:45;19.75;16.50;12.75
23240;PMS7003;11789;53.482;9.862;2023-05-10T09:33:18;16.50;16.50;12.00
23240;PMS7003;11789;53.482;9.862;2023-05-10T09:35:44;19.75;17.00;13.00
23240;PMS7003;11789;53.482;9.862;2023-05-10T09:38:09;19.50;19.50;13.00
23240;PMS7003;11789;53.482;9.862;2023-05-10T09:40:35;20.25;19.75;14.25
23240;PMS7003;11789;53.482;9.862;2023-05-10T09:43:01;17.25;17.25;13.50
23240;PMS7003;11789;53.482;9.862;2023-05-10T09:45:32;18.75;18.75;15.00
23240;PMS7003;11789;53.482;9.862;2023-05-10T09:47:58;18.50;18.50;14.00
23240;PMS7003;11789;53.482;9.862;2023-05-10T09:50:25;22.00;18.75;15.00
23240;PMS7003;11789;53.482;9.862;2023-05-10T09:55:18;17.75;17.75;13.25
23240;PMS7003;11789;53.482;9.862;2023-05-10T09:57:48;22.00;18.75;13.25
23240;PMS7003;11789;53.482;9.862;2023-05-10T10:00:23;20.00;18.50;12.50
23240;PMS7003;11789;53.482;9.862;2023-05-10T10:02:57;21.75;20.50;15.50
23240;PMS7003;11789;53.482;9.862;2023-05-10T10:05:28;20.50;20.50;15.25
23240;PMS7003;11789;53.482;9.862;2023-05-10T10:07:54;22.00;20.25;15.50
23240;PMS7003;11789;53.482;9.862;2023-05-10T10:10:21;21.00;19.25;13.25
23240;PMS7003;11789;53.482;9.862;2023-05-10T10:12:47;23.25;21.50;13.75
23240;PMS7003;11789;53.482;9.862;2023-05-10T10:15:13;21.75;20.00;15.00
23240;PMS7003;11789;53.482;9.862;2023-05-10T10:17:38;26.00;21.50;15.75
23240;PMS7003;11789;53.482;9.862;2023-05-10T10:20:05;20.00;19.50;13.75
23240;PMS7003;11789;53.482;9.862;2023-05-10T10:22:31;23.50;22.00;14.75
23240;PMS7003;11789;53.482;9.862;2023-05-10T10:24:56;19.00;18.00;12.75
23240;PMS7003;11789;53.482;9.862;2023-05-10T10:27:23;25.50;24.25;17.50
23240;PMS7003;11789;53.482;9.862;2023-05-10T10:35:38;25.50;24.25;17.00
23240;PMS7003;11789;53.482;9.862;2023-05-10T10:38:04;25.00;23.75;16.75
23240;PMS7003;11789;53.482;9.862;2023-05-10T10:40:33;27.75;24.00;16.25
23240;PMS7003;11789;53.482;9.862;2023-05-10T10:48:47;26.00;22.50;16.50
23240;PMS7003;11789;53.482;9.862;2023-05-10T10:51:13;22.50;22.25;15.50
23240;PMS7003;11789;53.482;9.862;2023-05-10T10:53:39;22.50;22.50;15.75
23240;PMS7003;11789;53.482;9.862;2023-05-10T10:56:09;23.25;21.25;15.50
23240;PMS7003;11789;53.482;9.862;2023-05-10T10:58:38;22.00;22.00;15.75
23240;PMS7003;11789;53.482;9.862;2023-05-10T11:01:17;21.00;21.00;16.25
23240;PMS7003;11789;53.482;9.862;2023-05-10T11:06:34;29.25;26.50;17.75
23240;PMS7003;11789;53.482;9.862;2023-05-10T11:09:07;23.75;23.50;15.50
23240;PMS7003;11789;53.482;9.862;2023-05-10T11:11:48;23.25;23.25;18.00
23240;PMS7003;11789;53.482;9.862;2023-05-10T11:14:17;25.00;24.50;15.50
23240;PMS7003;11789;53.482;9.862;2023-05-10T11:16:46;22.50;22.50;17.25
23240;PMS7003;11789;53.482;9.862;2023-05-10T11:19:12;23.75;22.75;15.25
23240;PMS7003;11789;53.482;9.862;2023-05-10T11:21:49;23.00;23.00;16.25
23240;PMS7003;11789;53.482;9.862;2023-05-10T11:24:22;24.25;22.75;16.50
23240;PMS7003;11789;53.482;9.862;2023-05-10T11:26:52;20.75;17.50;12.75
23240;PMS7003;11789;53.482;9.862;2023-05-10T11:29:18;25.00;21.25;17.25
23240;PMS7003;11789;53.482;9.862;2023-05-10T11:31:44;24.50;23.50;15.50
23240;PMS7003;11789;53.482;9.862;2023-05-10T11:34:10;23.25;21.50;15.50
23240;PMS7003;11789;53.482;9.862;2023-05-10T11:36:36;21.00;21.00;16.00
23240;PMS7003;11789;53.482;9.862;2023-05-10T11:39:02;22.25;19.50;15.00
23240;PMS7003;11789;53.482;9.862;2023-05-10T11:41:29;21.75;21.75;14.50
23240;PMS7003;11789;53.482;9.862;2023-05-10T11:43:57;21.25;20.25;14.00
23240;PMS7003;11789;53.482;9.862;2023-05-10T11:46:24;21.75;20.00;14.50
23240;PMS7003;11789;53.482;9.862;2023-05-10T11:48:53;25.00;22.00;15.50
23240;PMS7003;11789;53.482;9.862;2023-05-10T11:51:22;15.50;15.50;11.50
23240;PMS7003;11789;53.482;9.862;2023-05-10T11:53:50;21.00;21.00;15.00
23240;PMS7003;11789;53.482;9.862;2023-05-10T11:56:17;16.00;16.00;12.00
23240;PMS7003;11789;53.482;9.862;2023-05-10T11:58:43;22.25;20.50;15.00
23240;PMS7003;11789;53.482;9.862;2023-05-10T12:01:08;20.75;19.25;13.75
23240;PMS7003;11789;53.482;9.862;2023-05-10T12:03:35;15.50;15.50;13.25
23240;PMS7003;11789;53.482;9.862;2023-05-10T12:06:01;17.00;15.75;12.25
23240;PMS7003;11789;53.482;9.862;2023-05-10T12:08:28;15.25;15.25;11.50
23240;PMS7003;11789;53.482;9.862;2023-05-10T12:11:04;17.00;16.00;11.00
23240;PMS7003;11789;53.482;9.862;2023-05-10T12:13:39;20.75;16.00;12.25
23240;PMS7003;11789;53.482;9.862;2023-05-10T12:16:16;17.00;16.75;12.00
23240;PMS7003;11789;53.482;9.862;2023-05-10T12:18:44;17.25;16.50;11.00
23240;PMS7003;11789;53.482;9.862;2023-05-10T12:21:10;18.50;18.50;12.50
23240;PMS7003;11789;53.482;9.862;2023-05-10T12:23:37;18.50;17.75;13.50
23240;PMS7003;11789;53.482;9.862;2023-05-10T12:26:04;22.00;19.00;13.25
23240;PMS7003;11789;53.482;9.862;2023-05-10T12:28:30;18.25;16.75;12.25
23240;PMS7003;11789;53.482;9.862;2023-05-10T12:30:57;16.00;16.00;12.25
23240;PMS7003;11789;53.482;9.862;2023-05-10T12:33:24;16.50;16.50;13.00
23240;PMS7003;11789;53.482;9.862;2023-05-10T12:35:50;16.50;16.50;10.50
23240;PMS7003;11789;53.482;9.862;2023-05-10T12:38:27;15.75;14.50;10.25
23240;PMS7003;11789;53.482;9.862;2023-05-10T12:41:02;19.50;19.50;13.00
23240;PMS7003;11789;53.482;9.862;2023-05-10T12:43:35;16.75;15.00;12.00
23240;PMS7003;11789;53.482;9.862;2023-05-10T12:46:10;16.00;16.00;13.00
23240;PMS7003;11789;53.482;9.862;2023-05-10T12:48:38;16.50;16.50;14.25
23240;PMS7003;11789;53.482;9.862;2023-05-10T12:51:04;18.00;17.50;11.75
23240;PMS7003;11789;53.482;9.862;2023-05-10T12:53:30;16.50;16.50;13.00
23240;PMS7003;11789;53.482;9.862;2023-05-10T12:55:56;21.50;19.25;12.75
23240;PMS7003;11789;53.482;9.862;2023-05-10T12:58:22;19.00;17.75;11.50
23240;PMS7003;11789;53.482;9.862;2023-05-10T13:00:48;16.25;16.25;13.00
23240;PMS7003;11789;53.482;9.862;2023-05-10T13:03:13;18.50;18.50;15.50
23240;PMS7003;11789;53.482;9.862;2023-05-10T13:05:40;16.25;16.25;13.00
23240;PMS7003;11789;53.482;9.862;2023-05-10T13:08:06;18.50;18.25;13.25
23240;PMS7003;11789;53.482;9.862;2023-05-10T13:10:31;21.50;18.75;13.00
23240;PMS7003;11789;53.482;9.862;2023-05-10T13:13:00;16.75;16.75;11.75
23240;PMS7003;11789;53.482;9.862;2023-05-10T13:15:26;22.75;21.50;15.75
23240;PMS7003;11789;53.482;9.862;2023-05-10T13:17:51;16.25;15.00;10.00
23240;PMS7003;11789;53.482;9.862;2023-05-10T13:20:18;20.25;20.25;14.50
23240;PMS7003;11789;53.482;9.862;2023-05-10T13:22:43;21.25;19.75;11.25
23240;PMS7003;11789;53.482;9.862;2023-05-10T13:25:10;18.25;18.25;14.00
23240;PMS7003;11789;53.482;9.862;2023-05-10T13:27:35;38.00;34.25;22.50
23240;PMS7003;11789;53.482;9.862;2023-05-10T13:30:02;43.50;36.75;24.50
23240;PMS7003;11789;53.482;9.862;2023-05-10T13:32:28;26.25;22.50;16.25
23240;PMS7003;11789;53.482;9.862;2023-05-10T13:34:54;19.25;19.25;15.00
23240;PMS7003;11789;53.482;9.862;2023-05-10T13:37:20;19.75;18.75;14.75
23240;PMS7003;11789;53.482;9.862;2023-05-10T13:39:46;21.25;21.25;16.25
23240;PMS7003;11789;53.482;9.862;2023-05-10T13:42:12;19.50;19.50;13.50
23240;PMS7003;11789;53.482;9.862;2023-05-10T13:44:39;25.00;22.50;16.50
23240;PMS7003;11789;53.482;9.862;2023-05-10T13:47:05;21.50;21.25;15.75
23240;PMS7003;11789;53.482;9.862;2023-05-10T13:49:31;21.50;21.50;14.00
23240;PMS7003;11789;53.482;9.862;2023-05-10T13:51:56;20.00;18.50;13.50
23240;PMS7003;11789;53.482;9.862;2023-05-10T13:54:23;18.50;17.00;12.50
23240;PMS7003;11789;53.482;9.862;2023-05-10T13:56:48;19.00;18.50;14.00
23240;PMS7003;11789;53.482;9.862;2023-05-10T13:59:14;18.00;18.00;13.50
23240;PMS7003;11789;53.482;9.862;2023-05-10T14:01:40;19.75;18.25;12.25
23240;PMS7003;11789;53.482;9.862;2023-05-10T14:04:06;17.25;17.25;12.00
23240;PMS7003;11789;53.482;9.862;2023-05-10T14:06:35;16.25;14.75;12.00
23240;PMS7003;11789;53.482;9.862;2023-05-10T14:09:01;27.75;27.75;20.00
23240;PMS7003;11789;53.482;9.862;2023-05-10T14:11:27;20.25;19.50;13.50
23240;PMS7003;11789;53.482;9.862;2023-05-10T14:13:52;23.75;22.75;16.75
23240;PMS7003;11789;53.482;9.862;2023-05-10T14:16:18;20.75;17.50;11.75
23240;PMS7003;11789;53.482;9.862;2023-05-10T14:18:44;20.00;18.75;12.75
23240;PMS7003;11789;53.482;9.862;2023-05-10T14:21:09;32.50;30.50;19.25
23240;PMS7003;11789;53.482;9.862;2023-05-10T14:23:35;13.50;12.25;12.25
23240;PMS7003;11789;53.482;9.862;2023-05-10T14:26:00;18.75;17.50;12.50